sensor_id;sensor_type;location;lat;lon;timestamp;temperature;humidity
45765;DHT22;31474;45.332;10.230;2022-09-09T00:04:17;22.90;99.90
45765;DHT22;31474;45.332;10.230;2022-09-09T00:07:47;22.80;99.90
45765;DHT22;31474;45.332;10.230;2022-09-09T00:15:07;22.80;99.90
45765;DHT22;31474;45.332;10.230;2022-09-09T00:22:42;22.80;99.90
45765;DHT22;31474;45.332;10.230;2022-09-09T00:25:16;22.70;99.90
45765;DHT22;31474;45.332;10.230;2022-09-09T00:27:47;22.60;99.90
45765;DHT22;31474;45.332;10.230;2022-09-09T00:30:23;22.70;99.90
45765;DHT22;31474;45.332;10.230;2022-09-09T00:32:53;22.70;99.90
45765;DHT22;31474;45.332;10.230;2022-09-09T00:35:35;22.60;99.90
45765;DHT22;31474;45.332;10.230;2022-09-09T00:38:10;22.50;99.90
45765;DHT22;31474;45.332;10.230;2022-09-09T00:40:45;22.50;99.90
45765;DHT22;31474;45.332;10.230;2022-09-09T00:45:56;22.50;99.90
45765;DHT22;31474;45.332;10.230;2022-09-09T01:16:56;22.40;99.90
45765;DHT22;31474;45.332;10.230;2022-09-09T01:22:42;22.30;99.90
45765;DHT22;31474;45.332;10.230;2022-09-09T01:27:55;22.20;99.90
45765;DHT22;31474;45.332;10.230;2022-09-09T01:30:22;22.20;99.90
45765;DHT22;31474;45.332;10.230;2022-09-09T01:32:51;22.20;99.90
45765;DHT22;31474;45.332;10.230;2022-09-09T01:35:44;22.20;99.90
45765;DHT22;31474;45.332;10.230;2022-09-09T01:38:10;22.10;99.90
45765;DHT22;31474;45.332;10.230;2022-09-09T01:40:37;22.10;99.90
45765;DHT22;31474;45.332;10.230;2022-09-09T01:43:03;22.10;99.90
45765;DHT22;31474;45.332;10.230;2022-09-09T01:45:30;22.00;99.90
45765;DHT22;31474;45.332;10.230;2022-09-09T01:47:56;22.00;99.90
45765;DHT22;31474;45.332;10.230;2022-09-09T01:50:22;21.90;99.90
45765;DHT22;31474;45.332;10.230;2022-09-09T01:52:56;22.00;99.90
45765;DHT22;31474;45.332;10.230;2022-09-09T01:55:37;22.00;99.90
45765;DHT22;31474;45.332;10.230;2022-09-09T01:58:34;22.00;99.90
45765;DHT22;31474;45.332;10.230;2022-09-09T02:01:27;22.00;99.90
45765;DHT22;31474;45.332;10.230;2022-09-09T02:03:57;22.00;99.90
45765;DHT22;31474;45.332;10.230;2022-09-09T02:06:35;22.00;99.90
45765;DHT22;31474;45.332;10.230;2022-09-09T02:09:05;21.90;99.90
45765;DHT22;31474;45.332;10.230;2022-09-09T02:11:32;21.80;99.90
45765;DHT22;31474;45.332;10.230;2022-09-09T02:14:02;21.80;99.90
45765;DHT22;31474;45.332;10.230;2022-09-09T02:16:40;21.80;99.90
45765;DHT22;31474;45.332;10.230;2022-09-09T02:19:29;21.90;99.90
45765;DHT22;31474;45.332;10.230;2022-09-09T02:21:59;21.90;99.90
45765;DHT22;31474;45.332;10.230;2022-09-09T02:24:27;21.90;99.90
45765;DHT22;31474;45.332;10.230;2022-09-09T02:26:55;22.00;99.90
45765;DHT22;31474;45.332;10.230;2022-09-09T02:29:29;21.90;99.90
45765;DHT22;31474;45.332;10.230;2022-09-09T02:31:56;21.90;99.90
45765;DHT22;31474;45.332;10.230;2022-09-09T02:34:23;21.90;99.90
45765;DHT22;31474;45.332;10.230;2022-09-09T02:36:52;22.00;99.90
45765;DHT22;31474;45.332;10.230;2022-09-09T02:39:19;22.00;99.90
45765;DHT22;31474;45.332;10.230;2022-09-09T02:41:44;22.00;99.90
45765;DHT22;31474;45.332;10.230;2022-09-09T02:44:12;21.90;99.90
45765;DHT22;31474;45.332;10.230;2022-09-09T02:47:16;21.90;99.90
45765;DHT22;31474;45.332;10.230;2022-09-09T02:55:07;21.70;99.90
45765;DHT22;31474;45.332;10.230;2022-09-09T02:57:34;21.60;99.90
45765;DHT22;31474;45.332;10.230;2022-09-09T03:00:00;21.50;99.90
45765;DHT22;31474;45.332;10.230;2022-09-09T03:02:27;21.60;99.90
45765;DHT22;31474;45.332;10.230;2022-09-09T03:04:53;21.60;99.90
45765;DHT22;31474;45.332;10.230;2022-09-09T03:07:19;21.60;99.90
45765;DHT22;31474;45.332;10.230;2022-09-09T03:09:45;21.70;99.90
45765;DHT22;31474;45.332;10.230;2022-09-09T03:12:11;21.70;99.90
45765;DHT22;31474;45.332;10.230;2022-09-09T03:14:37;21.60;99.90
45765;DHT22;31474;45.332;10.230;2022-09-09T03:17:04;21.70;99.90
45765;DHT22;31474;45.332;10.230;2022-09-09T03:19:30;21.70;99.90
45765;DHT22;31474;45.332;10.230;2022-09-09T03:21:57;21.70;99.90
45765;DHT22;31474;45.332;10.230;2022-09-09T03:24:24;21.70;99.90
45765;DHT22;31474;45.332;10.230;2022-09-09T03:26:50;21.70;99.90
45765;DHT22;31474;45.332;10.230;2022-09-09T03:29:16;21.70;99.90
45765;DHT22;31474;45.332;10.230;2022-09-09T03:31:43;21.70;99.90
45765;DHT22;31474;45.332;10.230;2022-09-09T03:34:09;21.70;99.90
45765;DHT22;31474;45.332;10.230;2022-09-09T03:36:37;21.70;99.90
45765;DHT22;31474;45.332;10.230;2022-09-09T03:39:03;21.70;99.90
45765;DHT22;31474;45.332;10.230;2022-09-09T03:41:29;21.70;99.90
45765;DHT22;31474;45.332;10.230;2022-09-09T03:43:55;21.70;99.90
45765;DHT22;31474;45.332;10.230;2022-09-09T03:46:24;21.70;99.90
45765;DHT22;31474;45.332;10.230;2022-09-09T03:48:49;21.70;99.90
45765;DHT22;31474;45.332;10.230;2022-09-09T03:51:16;21.70;99.90
45765;DHT22;31474;45.332;10.230;2022-09-09T03:53:42;21.70;99.90
45765;DHT22;31474;45.332;10.230;2022-09-09T03:56:08;21.70;99.90
45765;DHT22;31474;45.332;10.230;2022-09-09T03:58:35;21.70;99.90
45765;DHT22;31474;45.332;10.230;2022-09-09T04:01:03;21.70;99.90
45765;DHT22;31474;45.332;10.230;2022-09-09T04:03:30;21.70;99.90
45765;DHT22;31474;45.332;10.230;2022-09-09T04:05:58;21.70;99.90
45765;DHT22;31474;45.332;10.230;2022-09-09T04:08:25;21.70;99.90
45765;DHT22;31474;45.332;10.230;2022-09-09T04:10:51;21.60;99.90
45765;DHT22;31474;45.332;10.230;2022-09-09T04:13:18;21.60;99.90
45765;DHT22;31474;45.332;10.230;2022-09-09T04:15:53;21.60;99.90
45765;DHT22;31474;45.332;10.230;2022-09-09T04:18:20;21.60;99.90
45765;DHT22;31474;45.332;10.230;2022-09-09T04:20:47;21.50;99.90
45765;DHT22;31474;45.332;10.230;2022-09-09T04:23:13;21.50;99.90
45765;DHT22;31474;45.332;10.230;2022-09-09T04:25:47;21.50;99.90
45765;DHT22;31474;45.332;10.230;2022-09-09T04:28:14;21.50;99.90
45765;DHT22;31474;45.332;10.230;2022-09-09T04:30:41;21.50;99.90
45765;DHT22;31474;45.332;10.230;2022-09-09T04:33:07;21.40;99.90
45765;DHT22;31474;45.332;10.230;2022-09-09T04:35:33;21.40;99.90
45765;DHT22;31474;45.332;10.230;2022-09-09T04:37:59;21.40;99.90
45765;DHT22;31474;45.332;10.230;2022-09-09T04:40:25;21.30;99.90
45765;DHT22;31474;45.332;10.230;2022-09-09T04:42:51;21.30;99.90
45765;DHT22;31474;45.332;10.230;2022-09-09T04:45:17;21.20;99.90
45765;DHT22;31474;45.332;10.230;2022-09-09T04:47:43;21.20;99.90
45765;DHT22;31474;45.332;10.230;2022-09-09T04:50:09;21.20;99.90
45765;DHT22;31474;45.332;10.230;2022-09-09T04:52:35;21.20;99.90
45765;DHT22;31474;45.332;10.230;2022-09-09T04:55:01;21.10;99.90
45765;DHT22;31474;45.332;10.230;2022-09-09T04:57:27;21.10;99.90
45765;DHT22;31474;45.332;10.230;2022-09-09T04:59:54;21.10;99.90
45765;DHT22;31474;45.332;10.230;2022-09-09T05:02:20;21.20;99.90
45765;DHT22;31474;45.332;10.230;2022-09-09T05:04:45;21.20;99.90
45765;DHT22;31474;45.332;10.230;2022-09-09T05:07:11;21.20;99.90
45765;DHT22;31474;45.332;10.230;2022-09-09T05:09:37;21.10;99.90
45765;DHT22;31474;45.332;10.230;2022-09-09T05:12:02;21.10;99.90
45765;DHT22;31474;45.332;10.230;2022-09-09T05:14:28;21.10;99.90
45765;DHT22;31474;45.332;10.230;2022-09-09T05:16:54;21.10;99.90
45765;DHT22;31474;45.332;10.230;2022-09-09T05:19:21;21.10;99.90
45765;DHT22;31474;45.332;10.230;2022-09-09T05:21:47;21.20;99.90
45765;DHT22;31474;45.332;10.230;2022-09-09T05:24:13;21.10;99.90
45765;DHT22;31474;45.332;10.230;2022-09-09T05:26:38;21.10;99.90
45765;DHT22;31474;45.332;10.230;2022-09-09T05:29:04;21.20;99.90
45765;DHT22;31474;45.332;10.230;2022-09-09T05:31:31;21.30;99.90
45765;DHT22;31474;45.332;10.230;2022-09-09T05:33:58;21.40;99.90
45765;DHT22;31474;45.332;10.230;2022-09-09T05:36:24;21.40;99.90
45765;DHT22;31474;45.332;10.230;2022-09-09T05:38:50;21.50;99.90
45765;DHT22;31474;45.332;10.230;2022-09-09T05:41:17;21.50;99.90
45765;DHT22;31474;45.332;10.230;2022-09-09T05:43:44;21.50;99.90
45765;DHT22;31474;45.332;10.230;2022-09-09T05:46:15;21.60;99.90
45765;DHT22;31474;45.332;10.230;2022-09-09T05:48:42;21.50;99.90
45765;DHT22;31474;45.332;10.230;2022-09-09T05:51:10;21.60;99.90
45765;DHT22;31474;45.332;10.230;2022-09-09T05:53:41;21.70;99.90
45765;DHT22;31474;45.332;10.230;2022-09-09T05:56:08;21.70;99.90
45765;DHT22;31474;45.332;10.230;2022-09-09T05:58:36;21.90;99.90
45765;DHT22;31474;45.332;10.230;2022-09-09T06:01:07;21.90;99.90
45765;DHT22;31474;45.332;10.230;2022-09-09T06:03:34;22.00;99.90
45765;DHT22;31474;45.332;10.230;2022-09-09T06:06:03;22.20;99.90
45765;DHT22;31474;45.332;10.230;2022-09-09T06:08:31;22.20;99.90
45765;DHT22;31474;45.332;10.230;2022-09-09T06:11:02;22.20;99.90
45765;DHT22;31474;45.332;10.230;2022-09-09T06:13:28;22.40;99.90
45765;DHT22;31474;45.332;10.230;2022-09-09T06:15:54;22.50;99.90
45765;DHT22;31474;45.332;10.230;2022-09-09T06:18:20;22.60;99.90
45765;DHT22;31474;45.332;10.230;2022-09-09T06:20:59;22.70;99.90
45765;DHT22;31474;45.332;10.230;2022-09-09T06:23:30;22.80;99.90
45765;DHT22;31474;45.332;10.230;2022-09-09T06:28:32;22.90;99.90
45765;DHT22;31474;45.332;10.230;2022-09-09T06:30:59;22.90;99.90
45765;DHT22;31474;45.332;10.230;2022-09-09T06:33:25;22.90;99.90
45765;DHT22;31474;45.332;10.230;2022-09-09T06:35:54;22.90;99.90
45765;DHT22;31474;45.332;10.230;2022-09-09T06:38:22;22.70;99.90
45765;DHT22;31474;45.332;10.230;2022-09-09T06:40:56;22.50;99.90
45765;DHT22;31474;45.332;10.230;2022-09-09T06:43:22;22.50;99.90
45765;DHT22;31474;45.332;10.230;2022-09-09T06:46:03;22.70;99.90
45765;DHT22;31474;45.332;10.230;2022-09-09T06:48:29;22.90;99.90
45765;DHT22;31474;45.332;10.230;2022-09-09T06:53:33;23.20;99.90
45765;DHT22;31474;45.332;10.230;2022-09-09T06:56:17;23.40;99.90
45765;DHT22;31474;45.332;10.230;2022-09-09T06:58:43;23.50;99.90
45765;DHT22;31474;45.332;10.230;2022-09-09T07:01:17;23.60;99.90
45765;DHT22;31474;45.332;10.230;2022-09-09T07:03:48;23.70;99.90
45765;DHT22;31474;45.332;10.230;2022-09-09T07:06:23;24.00;99.90
45765;DHT22;31474;45.332;10.230;2022-09-09T07:08:53;24.10;99.90
45765;DHT22;31474;45.332;10.230;2022-09-09T07:11:21;24.10;99.90
45765;DHT22;31474;45.332;10.230;2022-09-09T07:13:47;24.30;99.90
45765;DHT22;31474;45.332;10.230;2022-09-09T07:16:16;24.40;99.90
45765;DHT22;31474;45.332;10.230;2022-09-09T07:18:42;24.40;99.90
45765;DHT22;31474;45.332;10.230;2022-09-09T07:21:10;24.60;99.90
45765;DHT22;31474;45.332;10.230;2022-09-09T07:23:37;24.80;99.90
45765;DHT22;31474;45.332;10.230;2022-09-09T07:26:08;24.80;99.90
45765;DHT22;31474;45.332;10.230;2022-09-09T07:28:34;24.80;99.90
45765;DHT22;31474;45.332;10.230;2022-09-09T07:31:01;25.00;99.90
45765;DHT22;31474;45.332;10.230;2022-09-09T07:33:32;25.30;99.90
45765;DHT22;31474;45.332;10.230;2022-09-09T07:36:10;25.70;99.90
45765;DHT22;31474;45.332;10.230;2022-09-09T07:38:39;26.00;99.90
45765;DHT22;31474;45.332;10.230;2022-09-09T07:41:07;25.90;99.90
45765;DHT22;31474;45.332;10.230;2022-09-09T07:43:40;25.90;99.90
45765;DHT22;31474;45.332;10.230;2022-09-09T07:46:06;25.70;99.90
45765;DHT22;31474;45.332;10.230;2022-09-09T07:48:32;25.60;99.90
45765;DHT22;31474;45.332;10.230;2022-09-09T07:51:15;25.30;99.90
45765;DHT22;31474;45.332;10.230;2022-09-09T07:53:46;25.20;99.90
45765;DHT22;31474;45.332;10.230;2022-09-09T07:56:15;25.00;99.90
45765;DHT22;31474;45.332;10.230;2022-09-09T07:58:47;24.90;99.90
45765;DHT22;31474;45.332;10.230;2022-09-09T08:01:16;24.90;99.90
45765;DHT22;31474;45.332;10.230;2022-09-09T08:03:44;24.90;99.90
45765;DHT22;31474;45.332;10.230;2022-09-09T08:06:11;24.60;99.90
45765;DHT22;31474;45.332;10.230;2022-09-09T08:08:38;24.20;99.90
45765;DHT22;31474;45.332;10.230;2022-09-09T08:11:14;23.90;99.90
45765;DHT22;31474;45.332;10.230;2022-09-09T08:13:41;23.70;99.90
45765;DHT22;31474;45.332;10.230;2022-09-09T08:16:19;23.50;99.90
45765;DHT22;31474;45.332;10.230;2022-09-09T08:18:51;23.50;99.90
45765;DHT22;31474;45.332;10.230;2022-09-09T08:21:20;23.30;99.90
45765;DHT22;31474;45.332;10.230;2022-09-09T08:23:47;23.10;99.90
45765;DHT22;31474;45.332;10.230;2022-09-09T08:26:19;22.90;99.90
45765;DHT22;31474;45.332;10.230;2022-09-09T08:28:50;22.80;99.90
45765;DHT22;31474;45.332;10.230;2022-09-09T08:33:44;22.70;99.90
45765;DHT22;31474;45.332;10.230;2022-09-09T08:36:15;22.70;99.90
45765;DHT22;31474;45.332;10.230;2022-09-09T08:38:42;22.60;99.90
45765;DHT22;31474;45.332;10.230;2022-09-09T08:41:37;22.40;99.90
45765;DHT22;31474;45.332;10.230;2022-09-09T08:52:14;22.30;99.90
45765;DHT22;31474;45.332;10.230;2022-09-09T08:54:42;22.20;99.90
45765;DHT22;31474;45.332;10.230;2022-09-09T08:57:13;22.20;99.90
45765;DHT22;31474;45.332;10.230;2022-09-09T08:59:40;22.10;99.90
45765;DHT22;31474;45.332;10.230;2022-09-09T09:04:53;22.10;99.90
45765;DHT22;31474;45.332;10.230;2022-09-09T09:07:31;22.00;99.90
45765;DHT22;31474;45.332;10.230;2022-09-09T09:12:53;22.00;99.90
45765;DHT22;31474;45.332;10.230;2022-09-09T09:15:21;21.90;99.90
45765;DHT22;31474;45.332;10.230;2022-09-09T09:17:49;22.00;99.90
45765;DHT22;31474;45.332;10.230;2022-09-09T09:20:16;22.20;99.90
45765;DHT22;31474;45.332;10.230;2022-09-09T09:22:49;22.30;99.90
45765;DHT22;31474;45.332;10.230;2022-09-09T09:25:20;22.40;99.90
45765;DHT22;31474;45.332;10.230;2022-09-09T09:28:03;22.40;99.90
45765;DHT22;31474;45.332;10.230;2022-09-09T09:30:42;22.50;99.90
45765;DHT22;31474;45.332;10.230;2022-09-09T09:35:52;23.10;99.90
45765;DHT22;31474;45.332;10.230;2022-09-09T09:38:24;23.50;99.90
45765;DHT22;31474;45.332;10.230;2022-09-09T09:40:54;23.90;99.90
45765;DHT22;31474;45.332;10.230;2022-09-09T09:43:26;24.10;99.90
45765;DHT22;31474;45.332;10.230;2022-09-09T09:45:53;24.10;99.90
45765;DHT22;31474;45.332;10.230;2022-09-09T09:48:19;24.20;99.90
45765;DHT22;31474;45.332;10.230;2022-09-09T09:51:10;24.40;99.90
45765;DHT22;31474;45.332;10.230;2022-09-09T09:53:39;24.40;99.90
45765;DHT22;31474;45.332;10.230;2022-09-09T09:56:10;24.30;99.90
45765;DHT22;31474;45.332;10.230;2022-09-09T10:03:51;25.00;99.90
45765;DHT22;31474;45.332;10.230;2022-09-09T10:06:28;24.90;99.90
45765;DHT22;31474;45.332;10.230;2022-09-09T10:08:54;24.90;99.90
45765;DHT22;31474;45.332;10.230;2022-09-09T10:14:39;24.70;99.90
45765;DHT22;31474;45.332;10.230;2022-09-09T10:19:35;24.50;99.90
45765;DHT22;31474;45.332;10.230;2022-09-09T10:27:43;24.40;99.90
45765;DHT22;31474;45.332;10.230;2022-09-09T10:30:18;24.30;99.90
45765;DHT22;31474;45.332;10.230;2022-09-09T10:32:48;24.40;99.90
45765;DHT22;31474;45.332;10.230;2022-09-09T10:38:27;25.00;99.90
45765;DHT22;31474;45.332;10.230;2022-09-09T10:46:43;25.50;99.70
45765;DHT22;31474;45.332;10.230;2022-09-09T10:49:27;25.60;99.90
45765;DHT22;31474;45.332;10.230;2022-09-09T10:57:38;25.80;99.30
45765;DHT22;31474;45.332;10.230;2022-09-09T11:00:06;25.80;99.10
45765;DHT22;31474;45.332;10.230;2022-09-09T11:02:38;26.10;99.90
45765;DHT22;31474;45.332;10.230;2022-09-09T11:05:18;26.30;99.50
45765;DHT22;31474;45.332;10.230;2022-09-09T11:08:08;26.60;97.40
45765;DHT22;31474;45.332;10.230;2022-09-09T11:13:17;26.60;96.80
45765;DHT22;31474;45.332;10.230;2022-09-09T11:15:46;26.80;96.60
45765;DHT22;31474;45.332;10.230;2022-09-09T11:18:21;27.00;97.10
45765;DHT22;31474;45.332;10.230;2022-09-09T11:20:51;27.00;97.00
45765;DHT22;31474;45.332;10.230;2022-09-09T11:23:32;27.00;97.00
45765;DHT22;31474;45.332;10.230;2022-09-09T11:26:04;27.00;94.70
45765;DHT22;31474;45.332;10.230;2022-09-09T11:34:37;27.30;96.40
45765;DHT22;31474;45.332;10.230;2022-09-09T11:42:23;27.20;96.40
45765;DHT22;31474;45.332;10.230;2022-09-09T11:44:49;27.30;95.00
45765;DHT22;31474;45.332;10.230;2022-09-09T11:47:27;27.20;96.30
45765;DHT22;31474;45.332;10.230;2022-09-09T11:52:45;27.30;96.70
45765;DHT22;31474;45.332;10.230;2022-09-09T11:55:34;27.20;96.00
45765;DHT22;31474;45.332;10.230;2022-09-09T11:58:05;27.10;95.40
45765;DHT22;31474;45.332;10.230;2022-09-09T12:00:40;27.00;95.90
45765;DHT22;31474;45.332;10.230;2022-09-09T12:06:31;27.10;95.50
45765;DHT22;31474;45.332;10.230;2022-09-09T12:09:08;27.20;95.20
45765;DHT22;31474;45.332;10.230;2022-09-09T12:11:36;27.10;94.70
45765;DHT22;31474;45.332;10.230;2022-09-09T12:14:02;27.10;95.30
45765;DHT22;31474;45.332;10.230;2022-09-09T12:16:34;27.10;95.70
45765;DHT22;31474;45.332;10.230;2022-09-09T12:27:27;27.30;95.60
45765;DHT22;31474;45.332;10.230;2022-09-09T12:30:04;27.30;93.80
45765;DHT22;31474;45.332;10.230;2022-09-09T12:32:30;27.40;94.60
45765;DHT22;31474;45.332;10.230;2022-09-09T12:34:59;27.50;95.80
45765;DHT22;31474;45.332;10.230;2022-09-09T12:37:47;27.50;95.20
45765;DHT22;31474;45.332;10.230;2022-09-09T12:42:45;27.60;95.00
45765;DHT22;31474;45.332;10.230;2022-09-09T12:45:20;27.60;95.90
45765;DHT22;31474;45.332;10.230;2022-09-09T12:47:57;27.70;95.20
45765;DHT22;31474;45.332;10.230;2022-09-09T12:50:25;27.70;95.30
45765;DHT22;31474;45.332;10.230;2022-09-09T12:53:39;27.70;95.50
45765;DHT22;31474;45.332;10.230;2022-09-09T12:55:52;27.80;95.80
45765;DHT22;31474;45.332;10.230;2022-09-09T12:58:19;27.90;94.80
45765;DHT22;31474;45.332;10.230;2022-09-09T13:00:51;28.00;96.10
45765;DHT22;31474;45.332;10.230;2022-09-09T13:03:19;28.10;94.60
45765;DHT22;31474;45.332;10.230;2022-09-09T13:05:46;28.20;96.30
45765;DHT22;31474;45.332;10.230;2022-09-09T13:08:13;28.30;95.80
45765;DHT22;31474;45.332;10.230;2022-09-09T13:11:00;28.40;95.70
45765;DHT22;31474;45.332;10.230;2022-09-09T13:13:39;28.50;95.10
45765;DHT22;31474;45.332;10.230;2022-09-09T13:16:17;28.50;93.70
45765;DHT22;31474;45.332;10.230;2022-09-09T13:18:43;28.30;93.00
45765;DHT22;31474;45.332;10.230;2022-09-09T13:21:09;28.10;95.00
45765;DHT22;31474;45.332;10.230;2022-09-09T13:23:36;28.00;94.50
45765;DHT22;31474;45.332;10.230;2022-09-09T13:28:48;28.00;94.50
45765;DHT22;31474;45.332;10.230;2022-09-09T13:31:23;28.00;94.40
45765;DHT22;31474;45.332;10.230;2022-09-09T13:33:49;28.00;93.80
45765;DHT22;31474;45.332;10.230;2022-09-09T13:36:15;28.10;95.30
45765;DHT22;31474;45.332;10.230;2022-09-09T13:38:55;28.20;95.20
45765;DHT22;31474;45.332;10.230;2022-09-09T13:41:23;28.20;94.70
45765;DHT22;31474;45.332;10.230;2022-09-09T13:43:50;28.30;95.20
45765;DHT22;31474;45.332;10.230;2022-09-09T13:46:35;28.30;94.60
45765;DHT22;31474;45.332;10.230;2022-09-09T13:49:24;28.30;94.20
45765;DHT22;31474;45.332;10.230;2022-09-09T13:52:09;28.30;94.00
45765;DHT22;31474;45.332;10.230;2022-09-09T13:54:36;28.30;93.70
45765;DHT22;31474;45.332;10.230;2022-09-09T13:57:02;28.30;95.20
45765;DHT22;31474;45.332;10.230;2022-09-09T13:59:27;28.20;94.90
45765;DHT22;31474;45.332;10.230;2022-09-09T14:01:53;28.20;95.00
45765;DHT22;31474;45.332;10.230;2022-09-09T14:04:19;28.30;95.40
45765;DHT22;31474;45.332;10.230;2022-09-09T14:06:46;28.30;95.20
45765;DHT22;31474;45.332;10.230;2022-09-09T14:09:14;28.40;95.00
45765;DHT22;31474;45.332;10.230;2022-09-09T14:11:40;28.40;95.10
45765;DHT22;31474;45.332;10.230;2022-09-09T14:14:06;28.40;94.70
45765;DHT22;31474;45.332;10.230;2022-09-09T14:16:32;28.40;94.90
45765;DHT22;31474;45.332;10.230;2022-09-09T14:18:58;28.30;95.20
45765;DHT22;31474;45.332;10.230;2022-09-09T14:21:25;28.30;95.00
45765;DHT22;31474;45.332;10.230;2022-09-09T14:23:51;28.30;95.20
45765;DHT22;31474;45.332;10.230;2022-09-09T14:26:18;28.40;95.50
45765;DHT22;31474;45.332;10.230;2022-09-09T14:28:46;28.50;95.30
45765;DHT22;31474;45.332;10.230;2022-09-09T14:31:12;28.50;95.30
45765;DHT22;31474;45.332;10.230;2022-09-09T14:33:39;28.50;95.10
45765;DHT22;31474;45.332;10.230;2022-09-09T14:36:05;28.40;94.90
45765;DHT22;31474;45.332;10.230;2022-09-09T14:38:35;28.40;95.00
45765;DHT22;31474;45.332;10.230;2022-09-09T14:41:11;28.40;94.40
45765;DHT22;31474;45.332;10.230;2022-09-09T14:43:38;28.50;94.90
45765;DHT22;31474;45.332;10.230;2022-09-09T14:46:09;28.50;95.00
45765;DHT22;31474;45.332;10.230;2022-09-09T14:48:35;28.50;94.90
45765;DHT22;31474;45.332;10.230;2022-09-09T14:51:21;28.50;94.90
45765;DHT22;31474;45.332;10.230;2022-09-09T14:53:54;28.40;93.80
45765;DHT22;31474;45.332;10.230;2022-09-09T14:56:22;28.40;94.60
45765;DHT22;31474;45.332;10.230;2022-09-09T14:58:49;28.40;94.80
45765;DHT22;31474;45.332;10.230;2022-09-09T15:01:18;28.30;94.60
45765;DHT22;31474;45.332;10.230;2022-09-09T15:03:50;28.30;94.60
45765;DHT22;31474;45.332;10.230;2022-09-09T15:06:16;28.30;93.60
45765;DHT22;31474;45.332;10.230;2022-09-09T15:08:43;28.30;95.00
45765;DHT22;31474;45.332;10.230;2022-09-09T15:11:11;28.20;95.00
45765;DHT22;31474;45.332;10.230;2022-09-09T15:13:38;28.20;94.70
45765;DHT22;31474;45.332;10.230;2022-09-09T15:18:34;28.20;94.60
45765;DHT22;31474;45.332;10.230;2022-09-09T15:21:04;28.20;95.20
45765;DHT22;31474;45.332;10.230;2022-09-09T15:23:34;28.20;95.20
45765;DHT22;31474;45.332;10.230;2022-09-09T15:26:00;28.20;94.60
45765;DHT22;31474;45.332;10.230;2022-09-09T15:28:26;28.20;95.10
45765;DHT22;31474;45.332;10.230;2022-09-09T15:30:53;28.20;94.90
45765;DHT22;31474;45.332;10.230;2022-09-09T15:33:20;28.20;94.90
45765;DHT22;31474;45.332;10.230;2022-09-09T15:35:46;28.10;93.90
45765;DHT22;31474;45.332;10.230;2022-09-09T15:38:12;28.10;94.60
45765;DHT22;31474;45.332;10.230;2022-09-09T15:40:43;28.10;95.10
45765;DHT22;31474;45.332;10.230;2022-09-09T15:43:09;28.10;94.70
45765;DHT22;31474;45.332;10.230;2022-09-09T15:45:36;28.10;94.80
45765;DHT22;31474;45.332;10.230;2022-09-09T15:48:03;28.00;94.90
45765;DHT22;31474;45.332;10.230;2022-09-09T15:50:28;28.00;94.80
45765;DHT22;31474;45.332;10.230;2022-09-09T15:52:58;27.90;94.90
45765;DHT22;31474;45.332;10.230;2022-09-09T15:55:24;28.00;94.90
45765;DHT22;31474;45.332;10.230;2022-09-09T15:57:50;27.90;94.80
45765;DHT22;31474;45.332;10.230;2022-09-09T16:00:18;27.90;95.00
45765;DHT22;31474;45.332;10.230;2022-09-09T16:02:46;27.90;94.80
45765;DHT22;31474;45.332;10.230;2022-09-09T16:05:12;27.90;94.60
45765;DHT22;31474;45.332;10.230;2022-09-09T16:07:38;27.90;94.80
45765;DHT22;31474;45.332;10.230;2022-09-09T16:10:04;27.90;94.50
45765;DHT22;31474;45.332;10.230;2022-09-09T16:12:29;27.80;94.30
45765;DHT22;31474;45.332;10.230;2022-09-09T16:14:55;27.80;94.70
45765;DHT22;31474;45.332;10.230;2022-09-09T16:17:21;27.80;94.70
45765;DHT22;31474;45.332;10.230;2022-09-09T16:19:46;27.80;94.90
45765;DHT22;31474;45.332;10.230;2022-09-09T16:22:12;27.70;94.90
45765;DHT22;31474;45.332;10.230;2022-09-09T16:24:40;27.70;94.50
45765;DHT22;31474;45.332;10.230;2022-09-09T16:27:06;27.60;94.60
45765;DHT22;31474;45.332;10.230;2022-09-09T16:29:32;27.60;94.50
45765;DHT22;31474;45.332;10.230;2022-09-09T16:31:57;27.50;94.80
45765;DHT22;31474;45.332;10.230;2022-09-09T16:34:26;27.60;94.90
45765;DHT22;31474;45.332;10.230;2022-09-09T16:36:51;27.50;94.90
45765;DHT22;31474;45.332;10.230;2022-09-09T16:39:20;27.40;94.30
45765;DHT22;31474;45.332;10.230;2022-09-09T16:41:47;27.40;94.20
45765;DHT22;31474;45.332;10.230;2022-09-09T16:44:15;27.40;94.60
45765;DHT22;31474;45.332;10.230;2022-09-09T16:46:42;27.30;94.60
45765;DHT22;31474;45.332;10.230;2022-09-09T16:49:13;27.30;94.70
45765;DHT22;31474;45.332;10.230;2022-09-09T16:51:45;27.30;94.40
45765;DHT22;31474;45.332;10.230;2022-09-09T16:54:12;27.20;94.40
45765;DHT22;31474;45.332;10.230;2022-09-09T16:56:40;27.20;94.90
45765;DHT22;31474;45.332;10.230;2022-09-09T16:59:13;27.20;95.20
45765;DHT22;31474;45.332;10.230;2022-09-09T17:01:40;27.20;95.10
45765;DHT22;31474;45.332;10.230;2022-09-09T17:04:11;27.10;95.30
45765;DHT22;31474;45.332;10.230;2022-09-09T17:06:38;27.10;95.00
45765;DHT22;31474;45.332;10.230;2022-09-09T17:09:09;27.00;95.40
45765;DHT22;31474;45.332;10.230;2022-09-09T17:11:37;27.00;95.10
45765;DHT22;31474;45.332;10.230;2022-09-09T17:14:03;27.00;95.50
45765;DHT22;31474;45.332;10.230;2022-09-09T17:16:31;26.90;95.60
45765;DHT22;31474;45.332;10.230;2022-09-09T17:18:59;26.90;95.60
45765;DHT22;31474;45.332;10.230;2022-09-09T17:21:27;26.80;95.70
45765;DHT22;31474;45.332;10.230;2022-09-09T17:23:54;26.80;95.90
45765;DHT22;31474;45.332;10.230;2022-09-09T17:26:25;26.80;96.00
45765;DHT22;31474;45.332;10.230;2022-09-09T17:28:52;26.70;96.10
45765;DHT22;31474;45.332;10.230;2022-09-09T17:31:19;26.70;96.50
45765;DHT22;31474;45.332;10.230;2022-09-09T17:33:46;26.70;96.50
45765;DHT22;31474;45.332;10.230;2022-09-09T17:36:19;26.70;96.70
45765;DHT22;31474;45.332;10.230;2022-09-09T17:38:45;26.60;96.60
45765;DHT22;31474;45.332;10.230;2022-09-09T17:41:15;26.50;96.60
45765;DHT22;31474;45.332;10.230;2022-09-09T17:43:41;26.50;96.50
45765;DHT22;31474;45.332;10.230;2022-09-09T17:46:09;26.50;96.50
45765;DHT22;31474;45.332;10.230;2022-09-09T17:48:35;26.40;96.50
45765;DHT22;31474;45.332;10.230;2022-09-09T17:51:09;26.40;96.50
45765;DHT22;31474;45.332;10.230;2022-09-09T17:53:39;26.40;96.70
45765;DHT22;31474;45.332;10.230;2022-09-09T17:56:06;26.30;96.60
45765;DHT22;31474;45.332;10.230;2022-09-09T17:58:33;26.30;96.80